Arbor, Missouri
Current Conditions -  °F | °C
As of 7:53 PM on Friday 24 Oct 2014 (Local Time) from KCGI Reporting Station
Clear Clear  
Wind Chill: 57°   Ceiling: Unl
Heat Index: 57°   Visibility: 10mi
Dew Point: 51°   Wind: 3mph
Humidity: 81%   Direction: 180°S
Pressure: 30.05"   Gusts: NA
Location:  37.1651°N, 89.623°W
Report Text: KCGI 250053Z AUTO 18003KT 10SM CLR 14/11 A3005 RMK AO2 SLP175 T01390106 TSNO
Loading
Personal Weather Stations






























Interactive Weather Map
Tropical Storm Tracking
New forecast layout! Learn more

10-Day Weather Forecast

Advertisements
Track Severe Weather on mobile